Time;durP1;ratioP1;P1;durP2;ratioP2;P2;SDS_P1;SDS_P2;PMS_P1;PMS_P2;Temp;Humidity;BMP_temperature;BMP_pressure;BME280_temperature;BME280_humidity;BME280_pressure;Samples;Min_cycle;Max_cycle;Signal;HPM_P1;HPM_P2
2023/06/07 00:08:37;;;;;;;10.93;8.23;;;;;;;19.56;61.85;100242.16;30853195;28;97233;-68
2023/06/07 00:23:37;;;;;;;8.27;7.45;;;;;;;19.61;61.41;100234.22;30852913;28;105412;-69
2023/06/07 00:38:37;;;;;;;9.02;7.43;;;;;;;19.52;60.65;100238.28;30853080;28;101845;-68
2023/06/07 00:53:38;;;;;;;13.00;7.53;;;;;;;19.58;60.47;100258.97;30854698;28;97257;-68
2023/06/07 01:08:40;;;;;;;10.33;7.67;;;;;;;19.43;60.74;100250.44;30871838;28;97430;-67
2023/06/07 01:23:41;;;;;;;10.30;8.90;;;;;;;19.36;61.03;100252.41;30870216;28;97047;-67
2023/06/07 01:38:43;;;;;;;9.87;7.60;;;;;;;19.03;60.58;100245.53;30870053;28;96744;-67
2023/06/07 01:53:46;;;;;;;10.93;7.80;;;;;;;18.49;60.91;100247.88;30867705;28;96755;-67
2023/06/07 02:08:52;;;;;;;10.13;8.13;;;;;;;18.16;61.39;100238.22;30865526;28;97575;-67
2023/06/07 02:23:53;;;;;;;11.27;7.03;;;;;;;17.95;61.69;100236.69;30862894;28;96822;-67
2023/06/07 02:38:53;;;;;;;8.32;6.68;;;;;;;17.81;61.67;100242.16;30862943;28;96752;-67
2023/06/07 02:53:54;;;;;;;12.18;6.95;;;;;;;17.75;61.43;100251.91;30861403;28;104364;-67
2023/06/07 03:08:56;;;;;;;16.58;7.68;;;;;;;17.67;61.52;100251.34;30859850;28;97316;-68
2023/06/07 03:23:56;;;;;;;12.67;6.70;;;;;;;17.71;61.77;100266.03;30857907;28;96708;-67
2023/06/07 03:38:59;;;;;;;9.75;7.13;;;;;;;17.71;61.56;100290.28;30855588;28;106189;-67
2023/06/07 03:54:00;;;;;;;8.40;6.57;;;;;;;17.68;61.67;100294.22;30855104;28;97649;-66
2023/06/07 04:09:02;;;;;;;14.57;7.72;;;;;;;17.72;62.01;100300.03;30850714;28;97073;-67
2023/06/07 04:24:04;;;;;;;11.10;7.63;;;;;;;17.85;61.74;100289.19;30849811;28;96878;-69
2023/06/07 04:39:06;;;;;;;9.83;7.43;;;;;;;18.11;61.75;100276.59;30849903;28;97547;-68
2023/06/07 04:54:06;;;;;;;9.20;7.50;;;;;;;18.34;60.99;100272.50;30850911;28;96735;-67
2023/06/07 05:09:07;;;;;;;10.50;7.40;;;;;;;18.34;61.42;100275.19;30848074;28;96774;-68
2023/06/07 05:24:07;;;;;;;10.85;7.15;;;;;;;18.49;61.85;100297.25;30848383;28;96834;-67
2023/06/07 05:39:07;;;;;;;10.52;8.10;;;;;;;18.76;61.88;100300.56;30848152;28;96739;-68
2023/06/07 05:54:08;;;;;;;9.15;7.75;;;;;;;19.07;60.99;100311.53;30867621;28;96801;-67
2023/06/07 06:09:09;;;;;;;10.00;7.47;;;;;;;18.96;60.73;100318.47;30865564;28;97534;-68
2023/06/07 06:24:09;;;;;;;14.70;7.97;;;;;;;19.18;60.76;100318.88;30860950;28;97194;-68
2023/06/07 06:39:10;;;;;;;9.95;7.53;;;;;;;19.64;60.14;100319.38;30860488;28;96716;-68
2023/06/07 06:54:10;;;;;;;9.30;7.20;;;;;;;20.00;58.89;100317.69;30860167;28;97404;-67
2023/06/07 07:09:12;;;;;;;10.70;7.60;;;;;;;19.95;58.72;100329.19;30858437;28;97374;-69
2023/06/07 07:24:12;;;;;;;10.57;7.63;;;;;;;19.79;59.24;100333.34;30855749;28;97279;-68
2023/06/07 07:39:15;;;;;;;11.88;8.43;;;;;;;20.16;59.33;100337.88;30856002;28;96665;-70
2023/06/07 07:54:16;;;;;;;8.90;7.23;;;;;;;20.12;58.40;100347.50;30854885;28;96906;-69
2023/06/07 08:09:16;;;;;;;11.40;7.10;;;;;;;20.13;58.46;100341.00;30852755;28;97559;-69
2023/06/07 08:24:17;;;;;;;12.33;7.07;;;;;;;20.79;57.87;100341.09;30853535;28;104315;-70
2023/06/07 08:39:17;;;;;;;11.00;6.10;;;;;;;22.15;55.96;100339.84;30850906;28;96874;-70
2023/06/07 08:54:24;;;;;;;11.88;5.10;;;;;;;24.21;50.51;100339.25;30850356;28;97846;-70
2023/06/07 09:09:25;;;;;;;7.70;5.50;;;;;;;25.44;48.36;100336.63;30849891;28;98285;-70
2023/06/07 09:24:27;;;;;;;13.18;8.35;;;;;;;27.84;43.89;100325.06;30864668;28;100571;-70
2023/06/07 09:39:29;;;;;;;16.23;7.30;;;;;;;29.45;38.25;100317.09;30865494;28;96748;-68
2023/06/07 09:54:37;;;;;;;11.23;6.37;;;;;;;30.56;36.15;100311.34;30867239;28;97242;-71
2023/06/07 10:09:37;;;;;;;17.17;6.77;;;;;;;30.37;34.17;100295.72;30866229;28;97363;-68
2023/06/07 10:24:59;;;;;;;10.80;6.80;;;;;;;31.54;33.53;100295.72;30863922;28;97055;-67
2023/06/07 10:40:05;;;;;;;9.80;5.70;;;;;;;31.45;32.35;100281.06;30855068;28;96763;-67
2023/06/07 10:55:23;;;;;;;9.67;5.63;;;;;;;31.65;31.70;100274.31;30851812;28;96704;-67
2023/06/07 11:10:24;;;;;;;7.10;5.43;;;;;;;31.52;32.32;100253.91;30856207;28;97336;-67
2023/06/07 11:25:25;;;;;;;9.13;4.45;;;;;;;33.27;29.64;100230.13;30858833;28;97430;-68
2023/06/07 11:40:26;;;;;;;5.83;4.77;;;;;;;32.93;27.78;100217.06;30855948;28;97301;-67
2023/06/07 11:55:27;;;;;;;9.77;4.50;;;;;;;33.60;26.78;100193.78;30855912;28;97510;-67
2023/06/07 12:10:27;;;;;;;6.55;4.15;;;;;;;33.63;26.23;100200.59;30842914;28;97636;-68
2023/06/07 12:25:27;;;;;;;7.82;4.88;;;;;;;31.35;29.67;100216.84;30833596;28;98135;-66
2023/06/07 12:40:28;;;;;;;6.97;5.22;;;;;;;28.22;36.87;100203.25;30836376;28;104706;-67
2023/06/07 12:55:28;;;;;;;8.13;5.75;;;;;;;28.32;37.20;100187.53;30852681;28;96791;-66
2023/06/07 13:10:29;;;;;;;8.88;5.55;;;;;;;28.94;36.63;100173.16;30859554;28;97270;-67
2023/06/07 13:25:29;;;;;;;6.47;5.07;;;;;;;30.21;35.00;100146.81;30859816;28;104452;-68
2023/06/07 13:40:29;;;;;;;10.98;5.88;;;;;;;30.45;34.27;100142.28;30869314;28;96739;-67
2023/06/07 13:55:30;;;;;;;7.10;5.03;;;;;;;29.26;35.72;100121.47;30866103;28;96721;-70
2023/06/07 14:10:33;;;;;;;7.35;5.00;;;;;;;28.03;38.71;100124.56;30864017;28;103860;-73
2023/06/07 14:25:34;;;;;;;8.67;5.57;;;;;;;27.58;41.68;100130.13;30862037;28;97915;-66
2023/06/07 14:40:34;;;;;;;9.52;6.10;;;;;;;27.51;43.06;100137.84;30859430;28;96718;-67
2023/06/07 14:55:35;;;;;;;10.75;6.80;;;;;;;27.99;42.87;100129.75;30858892;28;96920;-73
2023/06/07 15:10:35;;;;;;;10.43;6.22;;;;;;;28.47;42.44;100119.97;30856047;28;96742;-67
2023/06/07 15:25:35;;;;;;;10.05;6.18;;;;;;;28.12;42.12;100111.06;30843222;28;97229;-68
2023/06/07 15:40:37;;;;;;;8.57;5.37;;;;;;;27.54;43.55;100107.16;30845310;28;97463;-68
2023/06/07 15:55:40;;;;;;;5.68;4.07;;;;;;;27.68;40.20;100102.69;30845861;28;97193;-68
2023/06/07 16:10:40;;;;;;;7.77;4.17;;;;;;;27.21;37.32;100104.09;30844574;28;97452;-68
2023/06/07 16:25:41;;;;;;;8.75;4.45;;;;;;;26.99;38.24;100129.13;30842005;28;97262;-68
2023/06/07 16:40:41;;;;;;;6.80;4.45;;;;;;;27.14;37.72;100141.88;30841686;28;97374;-68
2023/06/07 16:55:41;;;;;;;8.90;5.00;;;;;;;26.49;38.99;100137.22;30836208;28;110214;-68
2023/06/07 17:10:42;;;;;;;5.95;4.90;;;;;;;25.86;40.37;100130.19;30846727;28;98340;-68
2023/06/07 17:25:42;;;;;;;8.13;4.40;;;;;;;25.31;42.08;100140.78;30846407;28;97160;-67
2023/06/07 17:40:42;;;;;;;6.60;5.00;;;;;;;24.37;43.75;100157.00;30856389;28;100843;-70
2023/06/07 17:55:44;;;;;;;6.50;4.32;;;;;;;24.01;45.58;100186.69;30867822;28;104758;-68
2023/06/07 18:10:45;;;;;;;7.27;3.93;;;;;;;22.94;45.40;100188.00;30863359;28;97513;-70
2023/06/07 18:25:45;;;;;;;6.00;3.75;;;;;;;21.96;45.43;100195.50;30858840;28;96855;-69
2023/06/07 18:40:45;;;;;;;7.28;4.25;;;;;;;21.30;46.51;100187.78;30861021;28;97714;-69
2023/06/07 18:55:46;;;;;;;8.73;4.90;;;;;;;20.77;48.56;100188.88;30860682;28;97444;-70
2023/06/07 19:10:46;;;;;;;5.67;4.40;;;;;;;20.54;49.78;100190.50;30859860;28;96710;-69
2023/06/07 19:25:46;;;;;;;6.93;4.73;;;;;;;20.19;50.62;100194.06;30859268;28;96858;-69
2023/06/07 19:40:47;;;;;;;6.33;4.70;;;;;;;20.14;51.87;100199.34;30872746;28;107597;-67
2023/06/07 19:55:47;;;;;;;11.93;6.90;;;;;;;20.17;52.04;100204.28;30856816;28;111069;-67
2023/06/07 20:10:48;;;;;;;6.23;4.50;;;;;;;20.26;52.20;100197.47;30854488;28;97484;-68
2023/06/07 20:25:48;;;;;;;7.13;4.53;;;;;;;20.37;52.64;100200.41;30853874;28;96697;-67
2023/06/07 20:40:48;;;;;;;7.10;4.10;;;;;;;20.41;52.75;100196.19;30852836;28;103641;-69
2023/06/07 20:55:49;;;;;;;11.00;8.00;;;;;;;20.35;53.03;100199.81;30851977;28;104689;-69
2023/06/07 21:10:49;;;;;;;7.33;4.50;;;;;;;20.17;53.77;100201.56;30853295;28;98692;-69
2023/06/07 21:25:49;;;;;;;10.90;4.67;;;;;;;19.90;54.48;100222.78;30869269;28;96799;-69
2023/06/07 21:40:50;;;;;;;8.17;5.40;;;;;;;19.73;55.63;100226.13;30868895;28;97163;-70
2023/06/07 21:55:50;;;;;;;6.50;5.25;;;;;;;19.68;56.14;100227.88;30867872;28;100092;-70
2023/06/07 22:10:50;;;;;;;6.28;5.13;;;;;;;19.66;56.52;100227.28;30867179;28;100864;-69
2023/06/07 22:25:51;;;;;;;11.43;5.60;;;;;;;19.51;56.71;100220.41;30863317;28;97151;-69
2023/06/07 22:40:52;;;;;;;6.75;5.38;;;;;;;19.21;57.27;100213.09;30861617;28;97607;-69
2023/06/07 22:55:52;;;;;;;7.47;5.10;;;;;;;18.91;58.34;100210.34;30861882;28;97647;-70
2023/06/07 23:10:53;;;;;;;9.65;7.60;;;;;;;18.56;58.70;100224.38;30860565;28;96795;-68
2023/06/07 23:25:54;;;;;;;9.37;7.60;;;;;;;17.97;59.95;100221.13;30858676;28;97323;-70
2023/06/07 23:40:54;;;;;;;12.50;7.82;;;;;;;17.61;61.71;100195.66;30857592;28;97178;-68
2023/06/07 23:55:55;;;;;;;12.70;8.05;;;;;;;17.43;62.22;100200.69;30853652;28;108801;-69
